Terminal Aerodrome Forecast
Issued by NWS Grand Junction, CO

Home | Current Version | Previous Version | Text Only | Print | Product List | Glossary On
Versions: 1 2 3 4 5 6 7 8 9 10 11 12
000
FTUS45 KGJT 281723
TAFGJT
TAF
KGJT 281723Z 2818/2918 13007KT P6SM FEW150
     FM282000 19006KT P6SM SCT150
     FM282200 26006KT P6SM FEW100 SCT150
     FM290200 09006KT P6SM BKN140
     FM290500 13006KT P6SM BKN120
     FM291100 12010KT P6SM BKN080=

USA.gov is the U.S. government's official web portal to all federal, state and local government web resources and services.